Боухантеры.ру

Информация о пользователе

Привет, Гость! Войдите или зарегистрируйтесь.


Вы здесь » Боухантеры.ру » Снаряжение боухантера


Снаряжение боухантера

Тем 181 страница 210 из 213

Тема Ответов Просмотров Последнее сообщение
181 Flying arrow archery Toxic  Тот Самый Олег
1 52 2020-01-30 22:24:19  Sanarcher
1 37 2020-01-30 22:11:03  Sanarcher
183 Полезные узлы  Юджин
48 413 2020-01-30 21:02:47  Юджин
3 79 2020-01-29 13:35:40  Bowhunterinfo
185 Обмотка троса  Владимир
4 75 2020-01-25 21:50:51  Владимир
15 285 2020-01-25 17:27:25  Юджин
187 Как собрать охотничью стрелу  Александр Курашёв
16 298 2020-01-22 19:27:31  Bowhunterinfo
5 97 2020-01-20 13:10:26  Bows
189 Как не мерзнуть на дереве???  Тот Самый Олег
49 338 2020-01-20 11:58:32  Юджин
190 Наконечник Бишоп  Тот Самый Олег
2 62 2020-01-20 03:22:57  Тот Самый Олег
1 38 2020-01-20 02:28:48  Sanarcher
41 458 2020-01-17 23:42:20  РобинГад
9 132 2020-01-16 22:54:36  Юджин
194 Дальномер  Владимир
17 207 2020-01-14 22:43:47  Bows
195 Сброс  exc3lent
18 172 2020-01-14 08:57:49  Вован
6 120 2020-01-12 20:13:44  Тот Самый Олег
197 АТА шоу 2020  Александр Курашёв
15 160 2020-01-12 08:46:48  Черкасов
12 133 2020-01-11 08:45:15  iBolit66
199 Broadhead tuning  Тот Самый Олег
14 241 2020-01-10 00:20:07  Bows
200 Перчатки Sitka Ascent Glove - мой опыт  Александр Курашёв
3 53 2020-01-07 00:47:27  Pavel
3 96 2019-12-31 17:13:50  Юджин
202 Про АТА арбалета  Владимир
13 109 2019-12-29 10:28:55  Владимир
2 86 2019-12-27 23:26:46  Bows
1 41 2019-12-27 21:56:10  Александр Курашёв
205 Valkyrie наконечник валькирия  Тот Самый Олег
6 133 2019-12-25 17:04:56  Тот Самый Олег
15 543 2019-12-25 03:29:13  Тот Самый Олег
207 RMSG CUTTHROAT BROADHEAD  Тот Самый Олег
9 136 2019-12-24 23:00:04  Тот Самый Олег
208 Rage Hypodermic  Тот Самый Олег
1 47 2019-12-24 19:01:38  Foxshooter
209 German Kinetics  Тот Самый Олег
3 138 2019-12-24 16:33:33  Юджин
210 Модный вискербискет  Тот Самый Олег
2 72 2019-12-23 05:16:53  Тот Самый Олег

Вы здесь » Боухантеры.ру » Снаряжение боухантера